Terminal Aerodrome Forecast
Issued by NWS Wichita, KS

Current Version | Previous Version | Text Only | Print | Product List | Glossary On
Versions: 1 2 3 4 5 6 7 8 9 10 11 12 13 14 15 16 17 18 19 20 21
754
FTUS43 KICT 272331
TAFICT
TAF
KICT 272331Z 2800/2824 06006KT P6SM FEW050 SCT250
     FM280200 12004KT P6SM FEW250
     FM280800 VRB03KT P6SM VCTS BKN080CB BKN250
     FM281100 VRB03KT P6SM SCT250
     FM281700 13007KT P6SM SCT050=

USA.gov is the U.S. government's official web portal to all federal, state and local government web resources and services.